Forside
METAR-TAF:

METAR-TAF

Lufthavne :

Gran Canaria Lufthavn

Gran Canaria, Spanien

Breddekreds: 27-56N, længdekreds: 015-23W, højde: 23 m

Aktuelle vejr

Denne rapport blev lavet for 31 minutter siden, kl. 12:00 UTC
Vind 18 kt fra nord, varierende mellem nordvest og nordøst
Temperatur 26°C
Fugtighed 48%
Tryk 1020 hPa
Sigt 10 km eller mere
Spredte skyer i en højde af 4500 ft

METAR: GCLP 171200Z 35018KT 320V040 9999 SCT045 26/14 Q1020 NOSIG

Tid: 13:31 (12:31 UTC)

Vejrudsigter

Denne rapport blev lavet for 4 timer og 31 minutter siden, kl. 08:00 UTC
Foreløbig gælder fra 17 på 09 UTC til 18 på 09 UTC
Vind 19 kt fra nordnordøst
Sigt 10 km eller mere
Brudte skyer i en højde af 2500 ft
Sandsynlighed 30% :
Midlertidig
fra 17 på 22 UTC til 18 på 09 UTC
finregn

TAF: GCLP 170800Z 1709/1809 02019KT 9999 BKN025 TX26/1715Z TN20/1805Z PROB30 TEMPO 1722/1809 DZ

Vejrobservationer og prognoser fra mere end 4000 lufthavne (METAR og TAF).

De gule og røde prikker repræsenterer de meteorologiske stationer.

Flyt musen over at se navnet på stationen.

Så klik over at se vejr observationer og prognoser.

At skifte det kort: Klik på de grønne knapper med et sort kors for at zoome ind; på den grønne knap med en bindestreg for at zoome ud; eller på de grønne pile for tilstødende kort.


METAR-TAF: